createdAt,value
2023-04-09T00:00:18.776Z,22.3221
2023-04-09T00:01:22.935Z,22.3137
2023-04-09T00:02:26.905Z,22.3108
2023-04-09T00:03:30.813Z,22.3188
2023-04-09T00:04:34.765Z,22.3237
2023-04-09T00:05:38.627Z,22.3342
2023-04-09T00:06:42.535Z,22.3283
2023-04-09T00:07:46.425Z,22.3292
2023-04-09T00:08:50.813Z,22.3337
2023-04-09T00:09:54.775Z,22.3283
2023-04-09T00:10:58.914Z,22.3208
2023-04-09T00:12:02.899Z,22.3200
2023-04-09T00:13:06.723Z,22.3267
2023-04-09T00:14:10.627Z,22.3246
2023-04-09T00:15:23.996Z,22.3208
2023-04-09T00:16:19.054Z,22.2818
2023-04-09T00:17:22.958Z,22.2867
2023-04-09T00:18:26.836Z,22.2762
2023-04-09T00:19:30.718Z,22.2904
2023-04-09T00:20:34.617Z,22.3071
2023-04-09T00:21:38.850Z,22.3037
2023-04-09T00:22:42.746Z,22.3042
2023-04-09T00:23:42.942Z,22.2805
2023-04-09T00:24:46.848Z,22.2971
2023-04-09T00:25:50.738Z,22.2967
2023-04-09T00:26:54.639Z,22.2925
2023-04-09T00:27:58.515Z,22.2787
2023-04-09T00:29:02.418Z,22.2712
2023-04-09T00:30:06.308Z,22.2779
2023-04-09T00:31:10.225Z,22.2650
2023-04-09T00:32:14.084Z,22.2463
2023-04-09T00:33:17.990Z,22.2138
2023-04-09T00:34:21.880Z,22.2267
2023-04-09T00:35:25.802Z,22.2654
2023-04-09T00:36:29.900Z,22.2646
2023-04-09T00:37:33.809Z,22.2267
2023-04-09T00:38:37.709Z,22.2162
2023-04-09T00:39:41.668Z,22.2358
2023-04-09T00:40:45.504Z,22.2583
2023-04-09T00:41:49.410Z,22.2392
2023-04-09T00:42:53.297Z,22.2150
2023-04-09T00:43:57.233Z,22.1925
2023-04-09T00:45:01.131Z,22.1996
2023-04-09T00:46:05.046Z,22.1829
2023-04-09T00:47:08.953Z,22.1675
2023-04-09T00:48:12.824Z,22.1700
2023-04-09T00:49:16.728Z,22.1317
2023-04-09T00:50:20.636Z,22.1262
2023-04-09T00:51:24.543Z,22.1362
2023-04-09T00:52:28.414Z,22.1692
2023-04-09T00:53:32.323Z,22.1504
2023-04-09T00:54:36.234Z,22.1346
2023-04-09T00:55:40.141Z,22.1408
2023-04-09T00:56:44.010Z,22.1163
2023-04-09T00:57:47.935Z,22.0946
2023-04-09T00:58:52.377Z,22.1125
2023-04-09T00:59:56.443Z,22.1246
2023-04-09T01:01:00.352Z,22.1675
2023-04-09T01:02:04.276Z,22.1779
2023-04-09T01:03:08.289Z,22.1413
2023-04-09T01:04:12.211Z,22.1225
2023-04-09T01:05:16.112Z,22.1083
2023-04-09T01:06:20.176Z,22.1046
2023-04-09T01:07:24.063Z,22.0975
2023-04-09T01:08:27.965Z,22.0825
2023-04-09T01:09:31.847Z,22.0821
2023-04-09T01:10:35.762Z,22.0846
2023-04-09T01:11:39.642Z,22.0750
2023-04-09T01:12:43.542Z,22.0767
2023-04-09T01:13:47.760Z,22.0746
2023-04-09T01:14:51.659Z,22.0667
2023-04-09T01:15:55.642Z,22.0633
2023-04-09T01:16:59.542Z,22.0621
2023-04-09T01:18:03.489Z,22.0600
2023-04-09T01:19:07.343Z,22.0517
2023-04-09T01:20:11.229Z,22.0667
2023-04-09T01:21:15.355Z,22.0700
2023-04-09T01:22:19.235Z,22.0671
2023-04-09T01:23:23.138Z,22.0662
2023-04-09T01:24:27.249Z,22.0717
2023-04-09T01:25:31.150Z,22.0592
2023-04-09T01:26:35.058Z,22.0754
2023-04-09T01:27:38.968Z,22.0875
2023-04-09T01:28:42.868Z,22.0912
2023-04-09T01:29:46.760Z,22.0883
2023-04-09T01:30:50.717Z,22.0817
2023-04-09T01:31:54.833Z,22.0863
2023-04-09T01:32:58.805Z,22.1125
2023-04-09T01:34:02.873Z,22.1192
2023-04-09T01:35:06.778Z,22.0912
2023-04-09T01:36:10.676Z,22.0567
2023-04-09T01:37:14.564Z,22.0392
2023-04-09T01:38:18.471Z,22.0438
2023-04-09T01:39:22.604Z,22.0625
2023-04-09T01:40:26.508Z,22.0592
2023-04-09T01:41:30.728Z,22.0683
2023-04-09T01:42:34.617Z,22.0842
2023-04-09T01:43:38.506Z,22.0642
2023-04-09T01:44:42.419Z,22.0442
2023-04-09T01:45:46.327Z,22.0346
2023-04-09T01:46:50.299Z,22.0129
2023-04-09T01:47:54.241Z,22.0154
2023-04-09T01:48:58.361Z,22.0208
2023-04-09T01:50:02.317Z,22.0233
2023-04-09T01:51:06.287Z,22.0492
2023-04-09T01:52:10.192Z,22.0417
2023-04-09T01:53:14.090Z,22.0117
2023-04-09T01:54:17.983Z,22.0087
2023-04-09T01:55:21.885Z,22.0133
2023-04-09T01:56:25.982Z,22.0133
2023-04-09T01:57:29.876Z,22.0146
2023-04-09T01:58:33.781Z,22.0087
2023-04-09T01:59:37.965Z,22.0250
2023-04-09T02:00:41.859Z,22.0454
2023-04-09T02:01:45.833Z,22.0662
2023-04-09T02:02:49.858Z,22.0529
2023-04-09T02:03:53.877Z,22.0608
2023-04-09T02:04:57.777Z,22.0675
2023-04-09T02:05:58.126Z,22.0685
2023-04-09T02:07:02.012Z,22.0675
2023-04-09T02:08:05.913Z,22.0675
2023-04-09T02:09:09.997Z,22.0650
2023-04-09T02:11:18.988Z,22.0425
2023-04-09T02:12:22.866Z,21.9762
2023-04-09T02:13:26.771Z,21.9725
2023-04-09T02:14:30.668Z,21.9646
2023-04-09T02:15:34.585Z,21.9633
2023-04-09T02:16:38.747Z,21.9771
2023-04-09T02:17:42.656Z,21.9775
2023-04-09T02:18:46.779Z,21.9754
2023-04-09T02:19:50.650Z,21.9846
2023-04-09T02:20:54.545Z,21.9717
2023-04-09T02:21:58.437Z,21.9533
2023-04-09T02:23:02.345Z,21.9363
2023-04-09T02:24:06.259Z,21.9217
2023-04-09T02:25:10.172Z,21.9400
2023-04-09T02:26:14.051Z,21.9754
2023-04-09T02:27:18.007Z,21.9971
2023-04-09T02:28:21.874Z,22.0054
2023-04-09T02:29:25.797Z,22.0050
2023-04-09T02:30:29.664Z,21.9996
2023-04-09T02:31:33.866Z,22.0171
2023-04-09T02:32:37.831Z,22.0096
2023-04-09T02:33:41.703Z,21.9796
2023-04-09T02:34:45.601Z,21.9629
2023-04-09T02:35:49.546Z,21.9708
2023-04-09T02:36:53.404Z,21.9750
2023-04-09T02:37:57.318Z,21.9750
2023-04-09T02:39:01.438Z,21.9508
2023-04-09T02:40:05.373Z,21.9267
2023-04-09T02:41:09.257Z,21.9142
2023-04-09T02:42:13.357Z,21.9275
2023-04-09T02:43:17.273Z,21.9275
2023-04-09T02:44:21.146Z,21.9450
2023-04-09T02:45:25.062Z,21.9621
2023-04-09T02:46:29.013Z,21.9708
2023-04-09T02:47:32.968Z,21.9475
2023-04-09T02:48:36.839Z,21.9246
2023-04-09T02:49:40.742Z,21.9279
2023-04-09T02:50:44.664Z,21.9592
2023-04-09T02:51:48.623Z,21.9800
2023-04-09T02:52:52.531Z,21.9675
2023-04-09T02:53:56.732Z,21.9783
2023-04-09T02:55:00.644Z,22.0138
2023-04-09T02:56:04.525Z,22.0083
2023-04-09T02:57:08.437Z,21.9963
2023-04-09T02:58:12.312Z,22.0033
2023-04-09T02:59:16.222Z,22.0087
2023-04-09T03:00:20.117Z,22.0254
2023-04-09T03:01:24.035Z,22.0433
2023-04-09T03:02:28.091Z,22.0525
2023-04-09T03:03:32.098Z,22.0225
2023-04-09T03:04:36.033Z,22.0229
2023-04-09T03:05:39.937Z,22.0425
2023-04-09T03:06:44.053Z,22.0638
2023-04-09T03:07:47.959Z,22.0671
2023-04-09T03:08:52.281Z,22.0725
2023-04-09T03:09:56.306Z,22.0746
2023-04-09T03:11:00.184Z,22.0829
2023-04-09T03:12:04.090Z,22.0517
2023-04-09T03:13:07.982Z,22.0258
2023-04-09T03:14:11.879Z,22.0250
2023-04-09T03:15:15.785Z,22.0342
2023-04-09T03:16:19.724Z,22.0462
2023-04-09T03:17:23.593Z,22.0487
2023-04-09T03:18:27.509Z,22.0554
2023-04-09T03:19:31.395Z,22.0562
2023-04-09T03:20:35.291Z,22.0450
2023-04-09T03:21:39.184Z,22.0200
2023-04-09T03:22:43.089Z,22.0087
2023-04-09T03:23:46.974Z,22.0250
2023-04-09T03:24:50.874Z,22.0421
2023-04-09T03:25:54.774Z,22.0467
2023-04-09T03:26:58.887Z,22.0183
2023-04-09T03:28:02.830Z,22.0287
2023-04-09T03:29:06.690Z,22.0167
2023-04-09T03:30:10.595Z,22.0146
2023-04-09T03:31:14.554Z,22.0254
2023-04-09T03:32:19.174Z,22.0371
2023-04-09T03:33:23.053Z,22.0658
2023-04-09T03:34:26.963Z,22.0933
2023-04-09T03:35:30.884Z,22.1208
2023-04-09T03:36:34.777Z,22.1338
2023-04-09T03:37:38.660Z,22.1496
2023-04-09T03:38:42.576Z,22.1592
2023-04-09T03:39:46.693Z,22.1608
2023-04-09T03:40:50.606Z,22.1842
2023-04-09T03:41:54.710Z,22.1817
2023-04-09T03:42:58.632Z,22.1879
2023-04-09T03:44:02.529Z,22.2362
2023-04-09T03:45:06.424Z,22.2442
2023-04-09T03:46:10.327Z,22.2663
2023-04-09T03:47:14.442Z,22.2738
2023-04-09T03:48:18.342Z,22.2900
2023-04-09T03:49:22.472Z,22.2904
2023-04-09T03:50:26.354Z,22.2850
2023-04-09T03:51:30.265Z,22.2829
2023-04-09T03:52:34.153Z,22.2913
2023-04-09T03:53:38.087Z,22.3133
2023-04-09T03:54:42.291Z,22.3317
2023-04-09T03:55:46.198Z,22.3329
2023-04-09T03:56:50.342Z,22.3421
2023-04-09T03:57:54.247Z,22.3392
2023-04-09T03:58:58.174Z,22.3342
2023-04-09T04:00:02.073Z,22.3317
2023-04-09T04:01:05.954Z,22.3246
2023-04-09T04:02:09.934Z,22.3383
2023-04-09T04:03:13.984Z,22.3387
2023-04-09T04:04:20.468Z,22.3288
2023-04-09T04:05:20.558Z,22.3305
2023-04-09T04:06:24.468Z,22.3383
2023-04-09T04:07:28.363Z,22.3438
2023-04-09T04:08:32.280Z,22.3500
2023-04-09T04:09:36.176Z,22.3550
2023-04-09T04:10:40.084Z,22.3575
2023-04-09T04:11:43.973Z,22.3604
2023-04-09T04:12:47.942Z,22.3683
2023-04-09T04:13:51.820Z,22.3687
2023-04-09T04:14:55.739Z,22.3538
2023-04-09T04:15:59.664Z,22.3571
2023-04-09T04:17:03.761Z,22.3521
2023-04-09T04:18:07.648Z,22.3479
2023-04-09T04:19:11.874Z,22.3387
2023-04-09T04:20:15.752Z,22.3237
2023-04-09T04:21:19.657Z,22.3204
2023-04-09T04:22:26.112Z,22.3196
2023-04-09T04:23:24.909Z,22.3132
2023-04-09T04:24:28.799Z,22.3133
2023-04-09T04:25:32.712Z,22.3033
2023-04-09T04:26:36.612Z,22.3008
2023-04-09T04:27:40.525Z,22.3021
2023-04-09T04:28:44.420Z,22.3200
2023-04-09T04:29:44.515Z,22.3314
2023-04-09T04:30:48.406Z,22.3383
2023-04-09T04:31:52.347Z,22.3396
2023-04-09T04:32:56.240Z,22.3363
2023-04-09T04:34:00.195Z,22.3363
2023-04-09T04:35:04.271Z,22.3417
2023-04-09T04:36:08.166Z,22.3475
2023-04-09T04:37:12.292Z,22.3396
2023-04-09T04:38:16.181Z,22.3404
2023-04-09T04:39:20.095Z,22.3358
2023-04-09T04:40:23.960Z,22.3229
2023-04-09T04:41:27.869Z,22.3213
2023-04-09T04:42:31.961Z,22.3167
2023-04-09T04:43:35.867Z,22.3121
2023-04-09T04:44:39.979Z,22.2929
2023-04-09T04:45:43.926Z,22.2929
2023-04-09T04:46:47.799Z,22.3004
2023-04-09T04:47:51.716Z,22.2929
2023-04-09T04:48:55.587Z,22.2504
2023-04-09T04:49:59.501Z,22.2392
2023-04-09T04:51:03.373Z,22.2496
2023-04-09T04:52:07.614Z,22.2658
2023-04-09T04:53:11.499Z,22.3121
2023-04-09T04:54:15.399Z,22.3142
2023-04-09T04:55:19.289Z,22.2792
2023-04-09T04:56:23.194Z,22.3017
2023-04-09T04:57:27.085Z,22.3233
2023-04-09T04:58:31.005Z,22.3325
2023-04-09T04:59:35.111Z,22.3258
2023-04-09T05:00:39.020Z,22.3208
2023-04-09T05:01:43.015Z,22.3312
2023-04-09T05:02:47.263Z,22.3325
2023-04-09T05:03:51.216Z,22.3367
2023-04-09T05:04:55.192Z,22.3412
2023-04-09T05:05:59.078Z,22.3363
2023-04-09T05:07:02.958Z,22.3288
2023-04-09T05:08:06.872Z,22.3233
2023-04-09T05:09:10.765Z,22.3308
2023-04-09T05:10:14.660Z,22.3246
2023-04-09T05:11:18.536Z,22.3217
2023-04-09T05:12:22.690Z,22.3267
2023-04-09T05:13:26.572Z,22.3108
2023-04-09T05:14:30.484Z,22.2800
2023-04-09T05:15:34.361Z,22.2725
2023-04-09T05:16:38.291Z,22.2958
2023-04-09T05:17:42.203Z,22.3308
2023-04-09T05:18:46.106Z,22.3487
2023-04-09T05:19:49.999Z,22.3583
2023-04-09T05:20:53.912Z,22.3725
2023-04-09T05:21:58.004Z,22.3879
2023-04-09T05:23:01.930Z,22.4312
2023-04-09T05:24:05.818Z,22.4858
2023-04-09T05:25:09.701Z,22.5338
2023-04-09T05:26:13.590Z,22.5596
2023-04-09T05:27:17.502Z,22.5754
2023-04-09T05:28:21.401Z,22.5775
2023-04-09T05:29:26.890Z,22.5767
2023-04-09T05:30:30.800Z,22.5721
2023-04-09T05:31:34.681Z,22.5692
2023-04-09T05:32:38.629Z,22.5942
2023-04-09T05:33:42.487Z,22.6087
2023-04-09T05:34:46.395Z,22.5946
2023-04-09T05:35:50.301Z,22.5746
2023-04-09T05:36:54.208Z,22.5917
2023-04-09T05:37:58.293Z,22.5987
2023-04-09T05:39:02.196Z,22.6379
2023-04-09T05:40:06.414Z,22.7013
2023-04-09T05:41:10.314Z,22.7763
2023-04-09T05:42:14.235Z,22.8312
2023-04-09T05:43:18.105Z,22.8962
2023-04-09T05:44:22.007Z,22.9946
2023-04-09T05:45:25.901Z,23.0662
2023-04-09T05:46:29.911Z,23.0887
2023-04-09T05:47:33.886Z,23.1637
2023-04-09T05:48:37.772Z,23.2638
2023-04-09T05:49:41.640Z,23.3567
2023-04-09T05:50:54.475Z,23.4475
2023-04-09T05:51:50.026Z,23.5241
2023-04-09T05:52:53.934Z,23.5988
2023-04-09T05:53:57.820Z,23.7008
2023-04-09T05:55:01.766Z,23.7921
2023-04-09T05:56:05.609Z,23.8429
2023-04-09T05:57:09.760Z,23.8850
2023-04-09T05:58:13.637Z,23.9329
2023-04-09T05:59:17.536Z,23.9646
2023-04-09T06:00:21.637Z,24.0112
2023-04-09T06:01:25.548Z,24.0150
2023-04-09T06:02:29.485Z,24.0292
2023-04-09T06:03:33.470Z,24.0525
2023-04-09T06:04:37.433Z,24.0125
2023-04-09T06:05:41.330Z,23.8983
2023-04-09T06:06:45.205Z,23.7933
2023-04-09T06:07:49.120Z,23.6783
2023-04-09T06:08:53.014Z,23.6104
2023-04-09T06:09:56.910Z,23.5737
2023-04-09T06:11:00.815Z,23.5492
2023-04-09T06:12:04.754Z,23.5221
2023-04-09T06:13:08.600Z,23.5054
2023-04-09T06:14:12.509Z,23.5042
2023-04-09T06:15:16.398Z,23.5033
2023-04-09T06:16:20.335Z,23.5012
2023-04-09T06:17:20.568Z,23.5023
2023-04-09T06:18:24.440Z,23.4950
2023-04-09T06:19:28.345Z,23.4996
2023-04-09T06:20:32.235Z,23.5163
2023-04-09T06:21:36.131Z,23.5363
2023-04-09T06:22:40.012Z,23.5438
2023-04-09T06:23:43.900Z,23.5521
2023-04-09T06:24:48.132Z,23.5588
2023-04-09T06:25:52.056Z,23.5567
2023-04-09T06:26:55.946Z,23.5592
2023-04-09T06:27:59.827Z,23.5487
2023-04-09T06:29:03.695Z,23.5588
2023-04-09T06:30:07.626Z,23.5746
2023-04-09T06:31:11.537Z,23.5812
2023-04-09T06:32:15.624Z,23.5750
2023-04-09T06:33:19.595Z,23.5879
2023-04-09T06:34:23.493Z,23.6171
2023-04-09T06:35:27.399Z,23.6367
2023-04-09T06:36:31.295Z,23.6500
2023-04-09T06:37:35.192Z,23.6712
2023-04-09T06:38:39.086Z,23.6804
2023-04-09T06:39:50.553Z,23.6908
2023-04-09T06:40:47.480Z,23.7068
2023-04-09T06:41:51.373Z,23.7204
2023-04-09T06:42:55.262Z,23.7150
2023-04-09T06:43:59.145Z,23.7087
2023-04-09T06:45:03.060Z,23.6871
2023-04-09T06:46:06.958Z,23.6904
2023-04-09T06:47:10.850Z,23.7004
2023-04-09T06:48:14.951Z,23.7083
2023-04-09T06:49:18.848Z,23.7008
2023-04-09T06:50:22.978Z,23.7183
2023-04-09T06:51:26.862Z,23.7054
2023-04-09T06:52:30.775Z,23.7162
2023-04-09T06:53:34.743Z,23.7154
2023-04-09T06:54:38.594Z,23.7175
2023-04-09T06:55:42.486Z,23.7308
2023-04-09T06:56:46.380Z,23.7196
2023-04-09T06:57:50.583Z,23.7083
2023-04-09T06:58:54.489Z,23.6875
2023-04-09T06:59:58.374Z,23.6850
2023-04-09T07:01:02.298Z,23.6850
2023-04-09T07:02:06.285Z,23.6808
2023-04-09T07:03:10.253Z,23.6737
2023-04-09T07:04:14.201Z,23.6742
2023-04-09T07:05:18.323Z,23.6579
2023-04-09T07:06:22.198Z,23.6483
2023-04-09T07:07:26.315Z,23.6529
2023-04-09T07:08:30.229Z,23.6579
2023-04-09T07:09:34.131Z,23.6654
2023-04-09T07:10:38.015Z,23.6987
2023-04-09T07:11:41.894Z,23.6954
2023-04-09T07:12:45.809Z,23.6917
2023-04-09T07:13:49.692Z,23.7071
2023-04-09T07:14:53.591Z,23.7079
2023-04-09T07:15:57.508Z,23.7113
2023-04-09T07:17:01.428Z,23.7404
2023-04-09T07:18:05.309Z,23.7442
2023-04-09T07:19:09.217Z,23.7471
2023-04-09T07:20:13.314Z,23.7404
2023-04-09T07:21:17.236Z,23.7292
2023-04-09T07:22:21.114Z,23.6992
2023-04-09T07:23:25.021Z,23.7017
2023-04-09T07:24:28.905Z,23.7125
2023-04-09T07:25:32.858Z,23.7062
2023-04-09T07:26:36.706Z,23.6863
2023-04-09T07:27:40.616Z,23.6829
2023-04-09T07:28:44.503Z,23.6883
2023-04-09T07:29:48.429Z,23.6850
2023-04-09T07:30:52.316Z,23.6921
2023-04-09T07:31:56.244Z,23.7250
2023-04-09T07:33:00.520Z,23.7158
2023-04-09T07:34:04.423Z,23.7262
2023-04-09T07:35:08.307Z,23.7171
2023-04-09T07:36:12.463Z,23.7075
2023-04-09T07:37:16.379Z,23.7033
2023-04-09T07:38:20.281Z,23.7017
2023-04-09T07:39:24.174Z,23.7067
2023-04-09T07:40:24.685Z,23.6950
2023-04-09T07:41:28.590Z,23.6933
2023-04-09T07:42:32.698Z,23.6875
2023-04-09T07:43:36.589Z,23.6854
2023-04-09T07:44:40.500Z,23.7038
2023-04-09T07:45:44.411Z,23.7183
2023-04-09T07:46:48.346Z,23.7275
2023-04-09T07:47:52.251Z,23.7250
2023-04-09T07:48:56.137Z,23.7392
2023-04-09T07:50:00.060Z,23.7679
2023-04-09T07:51:04.170Z,23.7829
2023-04-09T07:52:08.083Z,23.8104
2023-04-09T07:53:11.964Z,23.8108
2023-04-09T07:54:15.862Z,23.8267
2023-04-09T07:55:20.022Z,23.8329
2023-04-09T07:56:23.935Z,23.8387
2023-04-09T07:57:27.821Z,23.8462
2023-04-09T07:58:31.714Z,23.8654
2023-04-09T07:59:35.608Z,23.8654
2023-04-09T08:00:36.050Z,23.8609
2023-04-09T08:01:39.968Z,23.8608
2023-04-09T08:02:43.970Z,23.8692
2023-04-09T08:03:48.102Z,23.8829
2023-04-09T08:04:52.109Z,23.8829
2023-04-09T08:05:52.612Z,23.8868
2023-04-09T08:06:56.505Z,23.8942
2023-04-09T08:08:00.425Z,23.9075
2023-04-09T08:09:04.308Z,23.9175
2023-04-09T08:10:08.206Z,23.9042
2023-04-09T08:11:12.102Z,23.8913
2023-04-09T08:12:16.025Z,23.8946
2023-04-09T08:13:19.901Z,23.9071
2023-04-09T08:14:23.807Z,23.8962
2023-04-09T08:15:27.775Z,23.8933
2023-04-09T08:16:31.662Z,23.9017
2023-04-09T08:17:35.540Z,23.9025
2023-04-09T08:18:39.632Z,23.9100
2023-04-09T08:19:43.534Z,23.9542
2023-04-09T08:20:47.647Z,23.9921
2023-04-09T08:21:51.554Z,24.0058
2023-04-09T08:22:55.443Z,23.9958
2023-04-09T08:23:59.358Z,23.9950
2023-04-09T08:25:03.250Z,24.0317
2023-04-09T08:26:07.136Z,24.0379
2023-04-09T08:27:11.036Z,24.0562
2023-04-09T08:28:14.966Z,24.0696
2023-04-09T08:29:18.834Z,24.0729
2023-04-09T08:30:22.782Z,24.0700
2023-04-09T08:31:26.681Z,24.0837
2023-04-09T08:32:30.628Z,24.0733
2023-04-09T08:33:34.498Z,24.0667
2023-04-09T08:34:38.410Z,24.1054
2023-04-09T08:35:42.299Z,24.1083
2023-04-09T08:36:46.249Z,24.1146
2023-04-09T08:37:50.100Z,24.0875
2023-04-09T08:38:54.099Z,24.1121
2023-04-09T08:39:58.122Z,24.0758
2023-04-09T08:41:02.044Z,24.0854
2023-04-09T08:42:05.939Z,24.0154
2023-04-09T08:43:10.067Z,23.9933
2023-04-09T08:44:13.961Z,23.9608
2023-04-09T08:45:17.874Z,23.9346
2023-04-09T08:46:21.779Z,23.9363
2023-04-09T08:47:25.717Z,23.9679
2023-04-09T08:48:29.683Z,24.0408
2023-04-09T08:49:33.576Z,24.0467
2023-04-09T08:50:37.806Z,23.9988
2023-04-09T08:51:41.696Z,23.9912
2023-04-09T08:52:45.600Z,24.0042
2023-04-09T08:53:49.721Z,24.0350
2023-04-09T08:54:53.650Z,24.0754
2023-04-09T08:55:57.550Z,24.0979
2023-04-09T08:57:01.466Z,24.1246
2023-04-09T08:58:05.356Z,24.1325
2023-04-09T08:59:09.260Z,24.0900
2023-04-09T09:00:13.148Z,24.0675
2023-04-09T09:01:17.084Z,24.0358
2023-04-09T09:02:21.035Z,24.0054
2023-04-09T09:03:25.040Z,24.0004
2023-04-09T09:04:29.025Z,24.0483
2023-04-09T09:05:32.940Z,24.0325
2023-04-09T09:06:36.843Z,24.0479
2023-04-09T09:07:40.736Z,24.0846
2023-04-09T09:08:44.629Z,24.0717
2023-04-09T09:09:48.529Z,24.0429
2023-04-09T09:10:52.428Z,24.0129
2023-04-09T09:11:56.336Z,24.0250
2023-04-09T09:13:00.282Z,24.0287
2023-04-09T09:14:04.195Z,24.0662
2023-04-09T09:15:08.093Z,24.0367
2023-04-09T09:16:12.053Z,23.9904
2023-04-09T09:17:15.947Z,23.9642
2023-04-09T09:18:19.850Z,24.0079
2023-04-09T09:19:23.751Z,24.0392
2023-04-09T09:20:27.803Z,24.0471
2023-04-09T09:21:31.758Z,24.0333
2023-04-09T09:22:35.644Z,24.0387
2023-04-09T09:23:39.553Z,24.0421
2023-04-09T09:24:43.450Z,24.0492
2023-04-09T09:25:47.366Z,24.0646
2023-04-09T09:26:51.270Z,24.0496
2023-04-09T09:27:55.422Z,24.0212
2023-04-09T09:28:59.328Z,23.9608
2023-04-09T09:30:03.208Z,23.9083
2023-04-09T09:31:07.119Z,23.9342
2023-04-09T09:32:10.991Z,23.9571
2023-04-09T09:33:14.895Z,23.9363
2023-04-09T09:34:18.821Z,23.9329
2023-04-09T09:35:22.782Z,23.9458
2023-04-09T09:36:26.663Z,23.9483
2023-04-09T09:37:30.562Z,23.9433
2023-04-09T09:38:34.441Z,23.9471
2023-04-09T09:39:38.352Z,23.9479
2023-04-09T09:40:42.240Z,23.9558
2023-04-09T09:41:46.148Z,23.9754
2023-04-09T09:42:50.047Z,23.9713
2023-04-09T09:43:53.946Z,23.9704
2023-04-09T09:44:57.834Z,23.9621
2023-04-09T09:46:02.002Z,23.9471
2023-04-09T09:47:05.931Z,23.9333
2023-04-09T09:48:10.133Z,23.9254
2023-04-09T09:49:14.021Z,23.9263
2023-04-09T09:50:18.017Z,23.9025
2023-04-09T09:51:22.024Z,23.8954
2023-04-09T09:52:26.733Z,23.9054
2023-04-09T09:53:30.647Z,23.9088
2023-04-09T09:54:34.546Z,23.9008
2023-04-09T09:55:38.455Z,23.8962
2023-04-09T09:56:42.365Z,23.8979
2023-04-09T09:57:46.284Z,23.8913
2023-04-09T09:58:50.651Z,23.8942
2023-04-09T09:59:54.688Z,23.8808
2023-04-09T10:00:58.632Z,23.8746
2023-04-09T10:02:02.572Z,23.8721
2023-04-09T10:03:06.869Z,23.8663
2023-04-09T10:04:10.814Z,23.8683
2023-04-09T10:05:14.681Z,23.8604
2023-04-09T10:06:18.577Z,23.8663
2023-04-09T10:07:22.501Z,23.8717
2023-04-09T10:08:26.463Z,23.8717
2023-04-09T10:09:30.401Z,23.8775
2023-04-09T10:10:34.296Z,23.8642
2023-04-09T10:11:38.204Z,23.8679
2023-04-09T10:12:42.116Z,23.8729
2023-04-09T10:13:46.001Z,23.8612
2023-04-09T10:14:49.906Z,23.8642
2023-04-09T10:15:53.897Z,23.8650
2023-04-09T10:16:57.794Z,23.8638
2023-04-09T10:18:01.704Z,23.8638
2023-04-09T10:19:05.593Z,23.8687
2023-04-09T10:20:09.482Z,23.8646
2023-04-09T10:21:13.379Z,23.8654
2023-04-09T10:22:17.261Z,23.8704
2023-04-09T10:23:21.168Z,23.8742
2023-04-09T10:24:25.061Z,23.8675
2023-04-09T10:25:28.961Z,23.8667
2023-04-09T10:26:32.860Z,23.8725
2023-04-09T10:27:36.758Z,23.8679
2023-04-09T10:28:40.655Z,23.8663
2023-04-09T10:29:44.555Z,23.8579
2023-04-09T10:30:48.688Z,23.8583
2023-04-09T10:31:52.574Z,23.8675
2023-04-09T10:32:56.536Z,23.8617
2023-04-09T10:34:00.394Z,23.8638
2023-04-09T10:35:04.326Z,23.8604
2023-04-09T10:36:08.194Z,23.8608
2023-04-09T10:37:12.093Z,23.8579
2023-04-09T10:38:16.013Z,23.8525
2023-04-09T10:39:19.897Z,23.8479
2023-04-09T10:40:23.776Z,23.8512
2023-04-09T10:41:27.718Z,23.8554
2023-04-09T10:42:31.583Z,23.8696
2023-04-09T10:43:35.497Z,23.8654
2023-04-09T10:44:39.378Z,23.8625
2023-04-09T10:45:43.285Z,23.8587
2023-04-09T10:46:47.221Z,23.8512
2023-04-09T10:47:51.169Z,23.8671
2023-04-09T10:48:55.020Z,23.8596
2023-04-09T10:49:58.928Z,23.8663
2023-04-09T10:51:02.817Z,23.8617
2023-04-09T10:52:07.123Z,23.8638
2023-04-09T10:53:07.159Z,23.8768
2023-04-09T10:54:11.084Z,23.8862
2023-04-09T10:55:14.972Z,23.8804
2023-04-09T10:56:18.877Z,23.8783
2023-04-09T10:57:22.762Z,23.8808
2023-04-09T10:58:26.657Z,23.8871
2023-04-09T10:59:30.549Z,23.8900
2023-04-09T11:00:34.463Z,23.9008
2023-04-09T11:01:38.467Z,23.8913
2023-04-09T11:02:42.572Z,23.9004
2023-04-09T11:03:46.552Z,23.8846
2023-04-09T11:04:50.477Z,23.8738
2023-04-09T11:05:54.353Z,23.8762
2023-04-09T11:06:58.233Z,23.8858
2023-04-09T11:08:02.128Z,23.8808
2023-04-09T11:09:02.539Z,23.8741
2023-04-09T11:10:06.452Z,23.8804
2023-04-09T11:11:10.336Z,23.8962
2023-04-09T11:12:14.248Z,23.9108
2023-04-09T11:13:14.458Z,23.9073
2023-04-09T11:14:18.366Z,23.9287
2023-04-09T11:15:22.253Z,23.9188
2023-04-09T11:16:27.883Z,23.9167
2023-04-09T11:17:27.582Z,23.9186
2023-04-09T11:18:27.907Z,23.9223
2023-04-09T11:19:31.787Z,23.9333
2023-04-09T11:20:35.725Z,23.9208
2023-04-09T11:21:39.578Z,23.9304
2023-04-09T11:22:43.488Z,23.9592
2023-04-09T11:23:47.597Z,23.9683
2023-04-09T11:24:51.508Z,23.9637
2023-04-09T11:25:55.614Z,23.9733
2023-04-09T11:26:59.516Z,23.9750
2023-04-09T11:28:03.406Z,23.9767
2023-04-09T11:29:07.305Z,23.9771
2023-04-09T11:30:11.243Z,23.9675
2023-04-09T11:31:15.151Z,23.9950
2023-04-09T11:32:19.000Z,24.0158
2023-04-09T11:33:23.139Z,24.0233
2023-04-09T11:34:27.021Z,24.0246
2023-04-09T11:35:30.984Z,24.0267
2023-04-09T11:36:35.088Z,24.0408
2023-04-09T11:37:38.988Z,24.0858
2023-04-09T11:38:42.881Z,24.1096
2023-04-09T11:39:46.779Z,24.0796
2023-04-09T11:40:50.901Z,24.0283
2023-04-09T11:41:54.821Z,24.0154
2023-04-09T11:42:58.686Z,24.0158
2023-04-09T11:44:02.577Z,23.9954
2023-04-09T11:45:06.496Z,23.9896
2023-04-09T11:46:10.377Z,23.9587
2023-04-09T11:47:14.285Z,23.9979
2023-04-09T11:48:18.228Z,24.0146
2023-04-09T11:49:22.152Z,24.0158
2023-04-09T11:50:26.025Z,24.0212
2023-04-09T11:51:29.928Z,24.0042
2023-04-09T11:52:33.813Z,24.0333
2023-04-09T11:53:37.726Z,24.0521
2023-04-09T11:54:41.624Z,24.0604
2023-04-09T11:55:45.618Z,24.0304
2023-04-09T11:56:49.764Z,24.0146
2023-04-09T11:57:53.679Z,24.0496
2023-04-09T11:58:57.575Z,24.0404
2023-04-09T12:00:03.806Z,24.0325
2023-04-09T12:01:03.897Z,24.0214
2023-04-09T12:02:07.885Z,24.0275
2023-04-09T12:03:12.135Z,23.9996
2023-04-09T12:04:16.587Z,24.0308
2023-04-09T12:05:20.549Z,24.0554
2023-04-09T12:06:24.558Z,24.0571
2023-04-09T12:07:28.437Z,24.0575
2023-04-09T12:08:32.560Z,24.0208
2023-04-09T12:09:36.469Z,24.0208
2023-04-09T12:10:40.339Z,24.0275
2023-04-09T12:11:44.220Z,24.0046
2023-04-09T12:12:48.144Z,23.9829
2023-04-09T12:13:52.033Z,24.0192
2023-04-09T12:14:55.920Z,24.0413
2023-04-09T12:16:00.050Z,24.0696
2023-04-09T12:17:03.967Z,24.0767
2023-04-09T12:18:07.932Z,24.1075
2023-04-09T12:19:12.044Z,24.1233
2023-04-09T12:20:15.954Z,24.1108
2023-04-09T12:21:19.836Z,24.0508
2023-04-09T12:22:23.742Z,24.0146
2023-04-09T12:23:27.641Z,24.0396
2023-04-09T12:24:31.546Z,24.0567
2023-04-09T12:25:35.460Z,24.0492
2023-04-09T12:26:39.338Z,24.0525
2023-04-09T12:27:43.223Z,24.0800
2023-04-09T12:28:47.137Z,24.0692
2023-04-09T12:29:51.019Z,24.0829
2023-04-09T12:30:54.920Z,24.1092
2023-04-09T12:31:58.817Z,24.1204
2023-04-09T12:33:02.735Z,24.1500
2023-04-09T12:34:06.627Z,24.1238
2023-04-09T12:35:10.508Z,24.0392
2023-04-09T12:36:14.436Z,24.0012
2023-04-09T12:37:18.295Z,24.0079
2023-04-09T12:38:22.201Z,23.9288
2023-04-09T12:39:26.106Z,23.8913
2023-04-09T12:40:30.091Z,23.8950
2023-04-09T12:41:34.399Z,23.9321
2023-04-09T12:42:38.314Z,23.9021
2023-04-09T12:43:43.943Z,23.9442
2023-04-09T12:44:42.585Z,23.9573
2023-04-09T12:45:46.483Z,23.9517
2023-04-09T12:46:50.386Z,23.9621
2023-04-09T12:47:54.278Z,23.9767
2023-04-09T12:48:58.359Z,23.8950
2023-04-09T12:50:02.284Z,23.8892
2023-04-09T12:51:06.147Z,23.9621
2023-04-09T12:52:10.055Z,24.0046
2023-04-09T12:53:13.943Z,24.0263